createdAt,value
2017-01-30T00:00:35.687Z,-1.03
2017-01-30T00:01:46.415Z,-0.96
2017-01-30T00:02:56.393Z,-0.95
2017-01-30T00:04:06.773Z,-0.93
2017-01-30T00:05:16.713Z,-0.92
2017-01-30T00:06:27.066Z,-0.96
2017-01-30T00:07:37.828Z,-0.91
2017-01-30T00:08:48.176Z,-0.95
2017-01-30T00:09:58.129Z,-1.06
2017-01-30T00:11:07.696Z,-1.06
2017-01-30T00:12:17.703Z,-1.01
2017-01-30T00:13:28.465Z,-0.93
2017-01-30T00:14:38.822Z,-0.98
2017-01-30T00:15:49.224Z,-1.07
2017-01-30T00:16:59.200Z,-1.1
2017-01-30T00:18:09.556Z,-1.1
2017-01-30T00:19:19.906Z,-1.01
2017-01-30T00:20:29.868Z,-1.06
2017-01-30T00:21:40.606Z,-1.14
2017-01-30T00:22:51.370Z,-1.03
2017-01-30T00:24:02.112Z,-1.14
2017-01-30T00:25:12.855Z,-1.09
2017-01-30T00:26:22.401Z,-1.03
2017-01-30T00:27:32.759Z,-0.98
2017-01-30T00:28:43.101Z,-0.93
2017-01-30T00:29:53.834Z,-0.91
2017-01-30T00:31:04.202Z,-0.93
2017-01-30T00:32:14.948Z,-0.95
2017-01-30T00:33:25.296Z,-0.95
2017-01-30T00:34:35.643Z,-1.01
2017-01-30T00:35:45.599Z,-0.98
2017-01-30T00:36:55.552Z,-0.98
2017-01-30T00:38:05.901Z,-0.95
2017-01-30T00:39:16.628Z,-0.98
2017-01-30T00:40:27.375Z,-0.98
2017-01-30T00:41:38.127Z,-0.95
2017-01-30T00:42:48.473Z,-0.93
2017-01-30T00:43:58.823Z,-0.93
2017-01-30T00:45:09.582Z,-0.92
2017-01-30T00:46:19.534Z,-0.98
2017-01-30T00:47:29.485Z,-1.01
2017-01-30T00:48:40.212Z,-1.01
2017-01-30T00:49:50.584Z,-0.99
2017-01-30T00:51:01.326Z,-1.11
2017-01-30T00:52:12.082Z,-1.04
2017-01-30T00:53:22.432Z,-0.96
2017-01-30T00:54:33.183Z,-0.96
2017-01-30T00:55:43.921Z,-1.06
2017-01-30T00:56:54.275Z,-1.03
2017-01-30T00:58:05.031Z,-1.06
2017-01-30T00:59:15.399Z,-1.13
2017-01-30T01:00:26.144Z,-1.04
2017-01-30T01:01:36.490Z,-0.99
2017-01-30T01:02:47.219Z,-1.14
2017-01-30T01:03:57.172Z,-1.04
2017-01-30T01:05:07.521Z,-1.13
2017-01-30T01:06:17.878Z,-1.04
2017-01-30T01:07:28.610Z,-1.01
2017-01-30T01:08:38.964Z,-0.93
2017-01-30T01:09:48.908Z,-1.07
2017-01-30T01:10:59.707Z,-1.07
2017-01-30T01:12:10.457Z,-1.07
2017-01-30T01:13:21.189Z,-1.07
2017-01-30T01:14:31.550Z,-1.07
2017-01-30T01:15:42.137Z,-1.04
2017-01-30T01:16:52.478Z,-1.06
2017-01-30T01:18:03.207Z,-0.98
2017-01-30T01:19:12.765Z,-0.95
2017-01-30T01:20:23.109Z,-1.03
2017-01-30T01:21:33.460Z,-0.98
2017-01-30T01:22:44.214Z,-0.93
2017-01-30T01:23:54.560Z,-0.96
2017-01-30T01:25:04.904Z,-0.96
2017-01-30T01:26:15.654Z,-0.98
2017-01-30T01:27:26.403Z,-1.03
2017-01-30T01:28:36.356Z,-1.1
2017-01-30T01:29:46.708Z,-1.06
2017-01-30T01:30:57.076Z,-1.14
2017-01-30T01:32:07.037Z,-1.14
2017-01-30T01:33:17.812Z,-1.07
2017-01-30T01:34:28.554Z,-1.1
2017-01-30T01:35:38.549Z,-1.17
2017-01-30T01:36:49.288Z,-1.24
2017-01-30T01:37:59.639Z,-1.25
2017-01-30T01:39:10.393Z,-1.27
2017-01-30T01:40:20.742Z,-1.34
2017-01-30T01:41:31.086Z,-1.27
2017-01-30T01:42:41.885Z,-1.22
2017-01-30T01:43:52.623Z,-1.24
2017-01-30T01:45:03.364Z,-1.25
2017-01-30T01:46:14.119Z,-1.28
2017-01-30T01:47:24.465Z,-1.27
2017-01-30T01:48:34.817Z,-1.27
2017-01-30T01:49:45.587Z,-1.3
2017-01-30T01:50:55.919Z,-1.3
2017-01-30T01:52:06.653Z,-1.31
2017-01-30T01:53:17.403Z,-1.3
2017-01-30T01:54:27.389Z,-1.27
2017-01-30T01:55:38.131Z,-1.31
2017-01-30T01:56:48.879Z,-1.35
2017-01-30T01:57:59.453Z,-1.35
2017-01-30T01:59:10.006Z,-1.3
2017-01-30T02:00:20.349Z,-1.34
2017-01-30T02:01:31.109Z,-1.3
2017-01-30T02:02:41.490Z,-1.35
2017-01-30T02:03:51.831Z,-1.34
2017-01-30T02:05:01.785Z,-1.42
2017-01-30T02:06:12.522Z,-1.3
2017-01-30T02:07:22.862Z,-1.3
2017-01-30T02:08:32.810Z,-1.35
2017-01-30T02:09:43.537Z,-1.34
2017-01-30T02:10:54.312Z,-1.34
2017-01-30T02:12:05.050Z,-1.35
2017-01-30T02:13:15.017Z,-1.22
2017-01-30T02:14:25.754Z,-1.22
2017-01-30T02:15:36.109Z,-1.27
2017-01-30T02:16:46.453Z,-1.3
2017-01-30T02:17:56.795Z,-1.24
2017-01-30T02:19:07.150Z,-1.16
2017-01-30T02:20:17.892Z,-1.28
2017-01-30T02:21:28.248Z,-1.27
2017-01-30T02:22:38.598Z,-1.22
2017-01-30T02:23:49.361Z,-1.24
2017-01-30T02:25:00.094Z,-1.22
2017-01-30T02:26:10.841Z,-1.24
2017-01-30T02:27:21.602Z,-1.34
2017-01-30T02:28:31.939Z,-1.34
2017-01-30T02:29:42.281Z,-1.24
2017-01-30T02:30:52.630Z,-1.28
2017-01-30T02:32:02.987Z,-1.27
2017-01-30T02:33:13.721Z,-1.28
2017-01-30T02:34:24.467Z,-1.24
2017-01-30T02:35:35.214Z,-1.25
2017-01-30T02:36:45.986Z,-1.24
2017-01-30T02:37:55.546Z,-1.22
2017-01-30T02:39:05.509Z,-1.25
2017-01-30T02:40:15.511Z,-1.16
2017-01-30T02:41:25.858Z,-1.25
2017-01-30T02:42:35.821Z,-1.3
2017-01-30T02:43:46.193Z,-1.24
2017-01-30T02:44:56.925Z,-1.25
2017-01-30T02:46:06.486Z,-1.24
2017-01-30T02:47:17.211Z,-1.27
2017-01-30T02:48:27.556Z,-1.24
2017-01-30T02:49:37.896Z,-1.27
2017-01-30T02:50:48.680Z,-1.24
2017-01-30T02:51:59.448Z,-1.27
2017-01-30T02:53:09.398Z,-1.25
2017-01-30T02:54:19.751Z,-1.25
2017-01-30T02:55:30.104Z,-1.25
2017-01-30T02:56:40.841Z,-1.28
2017-01-30T02:57:50.400Z,-1.27
2017-01-30T02:59:01.141Z,-1.1
2017-01-30T03:00:11.481Z,-1.11
2017-01-30T03:01:22.246Z,-1.14
2017-01-30T03:32:42.344Z,-4.16
2017-01-30T03:33:52.659Z,-4.25
2017-01-30T03:35:03.426Z,-4.22
2017-01-30T03:36:13.776Z,-4.16
2017-01-30T03:37:23.721Z,-3.96
2017-01-30T03:38:34.070Z,-3.91
2017-01-30T03:39:44.815Z,-3.72
2017-01-30T03:40:55.548Z,-3.5
2017-01-30T03:42:06.295Z,-3.3
2017-01-30T03:43:16.644Z,-3.12
2017-01-30T03:44:26.976Z,-3.06
2017-01-30T03:45:37.340Z,-2.76
2017-01-30T03:46:48.114Z,-2.78
2017-01-30T03:47:58.847Z,-2.54
2017-01-30T03:49:09.206Z,-2.4
2017-01-30T03:50:19.554Z,-2.27
2017-01-30T03:51:29.528Z,-2.17
2017-01-30T03:52:39.867Z,-1.99
2017-01-30T03:53:50.602Z,-1.99
2017-01-30T03:55:00.988Z,-1.78
2017-01-30T03:56:11.330Z,-1.76
2017-01-30T03:57:22.076Z,-1.67
2017-01-30T03:58:32.416Z,-1.68
2017-01-30T03:59:42.770Z,-1.49
2017-01-30T04:00:52.733Z,-1.5
2017-01-30T04:02:03.278Z,-1.4
2017-01-30T04:03:13.627Z,-1.43
2017-01-30T04:04:23.968Z,-1.32
2017-01-30T04:05:34.313Z,-1.24
2017-01-30T04:06:43.876Z,-1.27
2017-01-30T04:07:54.624Z,-1.25
2017-01-30T04:09:04.980Z,-1.24
2017-01-30T04:10:15.717Z,-1.22
2017-01-30T04:11:25.674Z,-1.14
2017-01-30T04:12:35.231Z,-1.14
2017-01-30T04:13:45.586Z,-1.17
2017-01-30T04:14:55.549Z,-1.25
2017-01-30T04:16:05.903Z,-1.22
2017-01-30T04:17:16.268Z,-1.27
2017-01-30T04:18:26.623Z,-1.28
2017-01-30T04:19:37.361Z,-1.25
2017-01-30T04:20:48.090Z,-1.35
2017-01-30T04:21:58.442Z,-1.3
2017-01-30T04:23:09.175Z,-1.37
2017-01-30T04:24:19.129Z,-1.27
2017-01-30T04:25:29.869Z,-1.25
2017-01-30T04:26:40.602Z,-1.27
2017-01-30T04:27:51.347Z,-1.3
2017-01-30T04:29:02.091Z,-1.27
2017-01-30T04:30:12.830Z,-1.28
2017-01-30T04:31:23.579Z,-1.31
2017-01-30T04:32:33.929Z,-1.28
2017-01-30T04:33:44.272Z,-1.32
2017-01-30T04:34:53.827Z,-1.31
2017-01-30T04:36:04.566Z,-1.35
2017-01-30T04:37:14.506Z,-1.28
2017-01-30T04:38:24.843Z,-1.4
2017-01-30T04:39:34.406Z,-1.37
2017-01-30T04:40:44.373Z,-1.38
2017-01-30T04:41:54.311Z,-1.4
2017-01-30T04:43:05.060Z,-1.42
2017-01-30T04:44:15.407Z,-1.4
2017-01-30T04:45:26.154Z,-1.37
2017-01-30T04:46:36.503Z,-1.32
2017-01-30T04:47:47.247Z,-1.3
2017-01-30T04:48:57.992Z,-1.37
2017-01-30T04:50:08.735Z,-1.34
2017-01-30T04:51:18.686Z,-1.31
2017-01-30T04:52:29.422Z,-1.31
2017-01-30T04:53:40.152Z,-1.34
2017-01-30T04:54:50.497Z,-1.31
2017-01-30T04:56:00.448Z,-1.38
2017-01-30T04:57:10.808Z,-1.32
2017-01-30T04:58:20.763Z,-1.4
2017-01-30T04:59:31.504Z,-1.35
2017-01-30T05:00:42.240Z,-1.3
2017-01-30T05:01:52.626Z,-1.31
2017-01-30T05:03:02.993Z,-1.32
2017-01-30T05:04:13.365Z,-1.35
2017-01-30T05:05:23.318Z,-1.32
2017-01-30T05:06:33.270Z,-1.28
2017-01-30T05:07:44.008Z,-1.3
2017-01-30T05:08:54.365Z,-1.32
2017-01-30T05:10:05.107Z,-1.34
2017-01-30T05:11:15.458Z,-1.34
2017-01-30T05:12:26.201Z,-1.3
2017-01-30T05:13:36.563Z,-1.3
2017-01-30T05:14:46.537Z,-1.4
2017-01-30T05:15:56.490Z,-1.42
2017-01-30T05:17:07.246Z,-1.37
2017-01-30T05:18:17.645Z,-1.42
2017-01-30T05:19:28.397Z,-1.38
2017-01-30T05:20:39.129Z,-1.4
2017-01-30T05:21:49.486Z,-1.42
2017-01-30T05:23:00.221Z,-1.42
2017-01-30T05:24:10.968Z,-1.34
2017-01-30T05:25:21.315Z,-1.37
2017-01-30T05:26:32.045Z,-1.38
2017-01-30T05:27:42.397Z,-1.46
2017-01-30T05:28:53.137Z,-1.46
2017-01-30T05:30:03.495Z,-1.52
2017-01-30T05:31:14.234Z,-1.55
2017-01-30T05:32:24.975Z,-1.46
2017-01-30T05:33:35.325Z,-1.48
2017-01-30T05:34:45.673Z,-1.48
2017-01-30T05:35:56.026Z,-1.55
2017-01-30T05:37:06.797Z,-1.58
2017-01-30T05:38:17.138Z,-1.61
2017-01-30T05:39:27.875Z,-1.66
2017-01-30T05:40:38.622Z,-1.6
2017-01-30T05:41:48.999Z,-1.66
2017-01-30T05:42:58.586Z,-1.56
2017-01-30T05:44:08.934Z,-1.67
2017-01-30T05:45:19.684Z,-1.63
2017-01-30T05:46:30.465Z,-1.53
2017-01-30T05:47:40.822Z,-1.71
2017-01-30T05:48:51.193Z,-1.7
2017-01-30T05:50:01.551Z,-1.7
2017-01-30T05:51:12.323Z,-1.66
2017-01-30T05:52:23.068Z,-1.63
2017-01-30T05:53:33.810Z,-1.66
2017-01-30T05:54:44.547Z,-1.73
2017-01-30T05:55:54.887Z,-1.73
2017-01-30T05:57:05.665Z,-1.73
2017-01-30T05:58:16.413Z,-1.73
2017-01-30T05:59:27.141Z,-1.68
2017-01-30T06:00:37.882Z,-1.78
2017-01-30T06:01:48.630Z,-1.76
2017-01-30T06:02:59.371Z,-1.71
2017-01-30T06:04:09.331Z,-1.7
2017-01-30T06:05:20.104Z,-1.81
2017-01-30T06:06:30.835Z,-1.74
2017-01-30T06:07:41.198Z,-1.76
2017-01-30T06:08:51.932Z,-1.67
2017-01-30T06:10:02.264Z,-1.68
2017-01-30T06:11:12.997Z,-1.68
2017-01-30T06:12:23.740Z,-1.74
2017-01-30T06:13:34.495Z,-1.7
2017-01-30T06:14:45.275Z,-1.71
2017-01-30T06:15:56.013Z,-1.78
2017-01-30T06:17:06.775Z,-1.74
2017-01-30T06:18:17.512Z,-1.74
2017-01-30T06:19:28.238Z,-1.66
2017-01-30T06:20:38.597Z,-1.7
2017-01-30T06:21:48.942Z,-1.7
2017-01-30T06:22:58.890Z,-1.73
2017-01-30T06:24:08.850Z,-1.76
2017-01-30T06:25:18.807Z,-1.7
2017-01-30T06:26:29.183Z,-1.7
2017-01-30T06:27:39.921Z,-1.66
2017-01-30T06:28:50.676Z,-1.76
2017-01-30T06:30:01.034Z,-1.6
2017-01-30T06:31:11.381Z,-1.64
2017-01-30T06:32:22.123Z,-1.68
2017-01-30T06:33:32.486Z,-1.64
2017-01-30T06:34:43.228Z,-1.76
2017-01-30T06:35:53.582Z,-1.71
2017-01-30T06:37:03.536Z,-1.76
2017-01-30T06:38:13.896Z,-1.74
2017-01-30T06:39:24.649Z,-1.71
2017-01-30T06:40:34.224Z,-1.64
2017-01-30T06:41:44.178Z,-1.68
2017-01-30T06:42:54.533Z,-1.6
2017-01-30T06:44:05.270Z,-1.71
2017-01-30T06:45:14.830Z,-1.63
2017-01-30T06:46:25.174Z,-1.68
2017-01-30T06:47:35.522Z,-1.63
2017-01-30T06:48:45.471Z,-1.6
2017-01-30T06:49:56.224Z,-1.66
2017-01-30T06:51:06.975Z,-1.56
2017-01-30T06:52:17.713Z,-1.63
2017-01-30T06:53:28.464Z,-1.58
2017-01-30T06:54:39.208Z,-1.67
2017-01-30T06:55:49.955Z,-1.64
2017-01-30T06:57:00.306Z,-1.53
2017-01-30T06:58:10.254Z,-1.6
2017-01-30T06:59:20.590Z,-1.56
2017-01-30T07:00:30.953Z,-1.56
2017-01-30T07:01:41.711Z,-1.67
2017-01-30T07:02:51.674Z,-1.73
2017-01-30T07:04:02.421Z,-1.67
2017-01-30T07:05:12.785Z,-1.71
2017-01-30T07:06:23.135Z,-1.71
2017-01-30T07:07:33.080Z,-1.63
2017-01-30T07:08:43.031Z,-1.63
2017-01-30T07:09:52.600Z,-1.64
2017-01-30T07:11:03.341Z,-1.56
2017-01-30T07:12:13.695Z,-1.67
2017-01-30T07:13:24.427Z,-1.73
2017-01-30T07:14:35.162Z,-1.76
2017-01-30T07:15:45.916Z,-1.73
2017-01-30T07:16:56.266Z,-1.6
2017-01-30T07:18:07.011Z,-1.7
2017-01-30T07:19:16.968Z,-1.64
2017-01-30T07:20:27.708Z,-1.61
2017-01-30T07:21:38.066Z,-1.63
2017-01-30T07:22:48.798Z,-1.66
2017-01-30T07:23:59.159Z,-1.55
2017-01-30T07:25:09.530Z,-1.52
2017-01-30T07:26:19.102Z,-1.5
2017-01-30T07:27:30.065Z,-1.49
2017-01-30T07:28:40.819Z,-1.48
2017-01-30T07:29:50.385Z,-1.5
2017-01-30T07:31:01.121Z,-1.5
2017-01-30T07:32:11.476Z,-1.46
2017-01-30T07:33:21.825Z,-1.5
2017-01-30T07:34:32.569Z,-1.52
2017-01-30T07:35:43.324Z,-1.53
2017-01-30T07:36:53.681Z,-1.55
2017-01-30T07:38:04.427Z,-1.49
2017-01-30T07:39:14.776Z,-1.58
2017-01-30T07:40:25.533Z,-1.6
2017-01-30T07:41:36.280Z,-1.61
2017-01-30T07:42:46.631Z,-1.68
2017-01-30T07:43:56.984Z,-1.64
2017-01-30T07:45:07.329Z,-1.53
2017-01-30T07:46:18.082Z,-1.58
2017-01-30T07:47:28.434Z,-1.61
2017-01-30T07:48:39.179Z,-1.68
2017-01-30T07:49:49.928Z,-1.55
2017-01-30T07:51:00.284Z,-1.64
2017-01-30T07:52:10.631Z,-1.64
2017-01-30T07:53:20.999Z,-1.68
2017-01-30T07:54:31.345Z,-1.58
2017-01-30T07:55:42.089Z,-1.6
2017-01-30T07:56:52.823Z,-1.55
2017-01-30T07:58:03.168Z,-1.6
2017-01-30T07:59:13.523Z,-1.55
2017-01-30T08:00:23.868Z,-1.61
2017-01-30T08:01:34.606Z,-1.56
2017-01-30T08:02:44.971Z,-1.49
2017-01-30T08:03:55.746Z,-1.6
2017-01-30T08:05:06.500Z,-1.6
2017-01-30T08:06:16.467Z,-1.61
2017-01-30T08:07:27.214Z,-1.61
2017-01-30T08:08:37.950Z,-1.55
2017-01-30T08:09:48.298Z,-1.58
2017-01-30T08:10:58.644Z,-1.55
2017-01-30T08:12:08.983Z,-1.49
2017-01-30T08:13:19.722Z,-1.4
2017-01-30T08:14:30.076Z,-1.32
2017-01-30T08:15:40.448Z,-1.31
2017-01-30T08:16:51.193Z,-1.3
2017-01-30T08:18:01.980Z,-1.24
2017-01-30T08:19:12.317Z,-1.28
2017-01-30T08:20:22.279Z,-1.27
2017-01-30T08:21:32.221Z,-1.32
2017-01-30T08:22:42.577Z,-1.28
2017-01-30T08:23:52.924Z,-1.32
2017-01-30T08:25:02.494Z,-1.28
2017-01-30T08:26:13.231Z,-1.32
2017-01-30T08:27:23.177Z,-1.25
2017-01-30T08:28:33.522Z,-1.28
2017-01-30T08:29:44.255Z,-1.3
2017-01-30T08:30:55.006Z,-1.28
2017-01-30T08:32:05.386Z,-1.34
2017-01-30T08:33:15.723Z,-1.3
2017-01-30T08:34:26.077Z,-1.32
2017-01-30T08:35:36.023Z,-1.35
2017-01-30T08:36:46.764Z,-1.32
2017-01-30T08:37:57.129Z,-1.27
2017-01-30T08:39:07.480Z,-1.32
2017-01-30T08:40:17.888Z,-1.32
2017-01-30T08:41:28.670Z,-1.25
2017-01-30T08:42:39.011Z,-1.27
2017-01-30T08:43:49.763Z,-1.3
2017-01-30T08:45:00.123Z,-1.3
2017-01-30T08:46:09.681Z,-1.24
2017-01-30T08:47:20.422Z,-1.32
2017-01-30T08:48:31.173Z,-1.32
2017-01-30T08:49:41.512Z,-1.3
2017-01-30T08:50:51.850Z,-1.35
2017-01-30T08:52:02.596Z,-1.32
2017-01-30T08:53:13.337Z,-1.28
2017-01-30T08:54:23.694Z,-1.3
2017-01-30T08:55:34.439Z,-1.32
2017-01-30T08:56:45.186Z,-1.3
2017-01-30T08:57:55.936Z,-1.4
2017-01-30T08:59:06.673Z,-1.43
2017-01-30T09:00:17.414Z,-1.45
2017-01-30T09:01:27.767Z,-1.38
2017-01-30T09:02:38.128Z,-1.5
2017-01-30T09:03:48.874Z,-1.43
2017-01-30T09:04:59.241Z,-1.53
2017-01-30T09:06:09.588Z,-1.49
2017-01-30T09:07:19.931Z,-1.5
2017-01-30T09:08:30.282Z,-1.42
2017-01-30T09:09:40.636Z,-1.45
2017-01-30T09:10:51.377Z,-1.43
2017-01-30T09:12:01.718Z,-1.42
2017-01-30T09:13:11.668Z,-1.3
2017-01-30T09:14:22.015Z,-1.25
2017-01-30T09:15:32.358Z,-1.27
2017-01-30T09:16:42.710Z,-1.28
2017-01-30T09:17:53.464Z,-1.25
2017-01-30T09:19:03.463Z,-1.22
2017-01-30T09:20:14.207Z,-1.22
2017-01-30T09:21:24.956Z,-1.27
2017-01-30T09:22:35.306Z,-1.14
2017-01-30T09:23:46.045Z,-1.13
2017-01-30T09:24:56.400Z,-1.07
2017-01-30T09:26:05.954Z,-1.16
2017-01-30T09:27:16.299Z,-1.27
2017-01-30T09:28:27.046Z,-1.22
2017-01-30T09:29:37.406Z,-1.24
2017-01-30T09:30:47.754Z,-1.24
2017-01-30T09:31:57.707Z,-1.14
2017-01-30T09:33:08.444Z,-1.22
2017-01-30T09:34:18.391Z,-1.25
2017-01-30T09:35:29.125Z,-1.25
2017-01-30T09:36:39.074Z,-1.25
2017-01-30T09:37:49.446Z,-1.28
2017-01-30T09:39:00.181Z,-1.19
2017-01-30T09:40:10.527Z,-1.27
2017-01-30T09:41:21.258Z,-1.24
2017-01-30T09:42:31.620Z,-1.11
2017-01-30T09:43:42.366Z,-1.14
2017-01-30T09:44:52.715Z,-1.09
2017-01-30T09:46:02.670Z,-1.13
2017-01-30T09:47:13.407Z,-1.04
2017-01-30T09:48:24.194Z,-1.03
2017-01-30T09:49:34.545Z,-0.95
2017-01-30T09:50:44.903Z,-1.09
2017-01-30T09:51:55.645Z,-1.04
2017-01-30T09:53:06.390Z,-1.06
2017-01-30T09:54:16.751Z,-0.99
2017-01-30T09:55:27.498Z,-0.99
2017-01-30T09:56:37.061Z,-0.99
2017-01-30T09:57:47.805Z,-0.95
2017-01-30T09:58:58.157Z,-0.89
2017-01-30T10:00:08.504Z,-0.91
2017-01-30T10:01:18.852Z,-0.93
2017-01-30T10:02:29.605Z,-0.79
2017-01-30T10:03:40.345Z,-0.72
2017-01-30T10:04:51.082Z,-0.76
2017-01-30T10:06:01.464Z,-0.72
2017-01-30T10:07:12.229Z,-0.52
2017-01-30T10:08:23.002Z,-0.48
2017-01-30T10:09:33.768Z,-0.33
2017-01-30T10:10:44.541Z,-0.4
2017-01-30T10:11:54.896Z,-0.41
2017-01-30T10:13:05.673Z,-0.52
2017-01-30T10:14:16.026Z,-0.61
2017-01-30T10:15:26.766Z,-0.59
2017-01-30T10:16:37.371Z,-0.69
2017-01-30T10:17:47.760Z,-0.74
2017-01-30T10:18:58.513Z,-0.76
2017-01-30T10:20:09.253Z,-0.67
2017-01-30T10:21:20.021Z,-0.73
2017-01-30T10:22:30.776Z,-0.84
2017-01-30T10:23:41.136Z,-0.77
2017-01-30T10:24:51.881Z,-0.74
2017-01-30T10:26:01.834Z,-0.74
2017-01-30T10:27:11.812Z,-0.64
2017-01-30T10:28:22.192Z,-0.67
2017-01-30T10:29:32.940Z,-0.56
2017-01-30T10:30:42.911Z,-0.64
2017-01-30T10:31:53.655Z,-0.54
2017-01-30T10:33:04.005Z,-0.59
2017-01-30T10:34:14.763Z,-0.64
2017-01-30T10:35:25.508Z,-0.66
2017-01-30T10:36:35.455Z,-0.69
2017-01-30T10:37:46.199Z,-0.61
2017-01-30T10:38:56.556Z,-0.67
2017-01-30T10:40:07.288Z,-0.72
2017-01-30T10:41:18.018Z,-0.64
2017-01-30T10:42:28.364Z,-0.61
2017-01-30T10:43:38.707Z,-0.67
2017-01-30T10:44:48.665Z,-0.66
2017-01-30T10:45:59.029Z,-0.66
2017-01-30T10:47:09.786Z,-0.58
2017-01-30T10:48:19.740Z,-0.55
2017-01-30T10:49:30.505Z,-0.64
2017-01-30T10:50:41.265Z,-0.64
2017-01-30T10:51:51.616Z,-0.62
2017-01-30T10:53:01.564Z,-0.61
2017-01-30T10:54:11.920Z,-0.66
2017-01-30T10:55:22.267Z,-0.61
2017-01-30T10:56:32.643Z,-0.62
2017-01-30T10:57:43.390Z,-0.54
2017-01-30T10:58:54.148Z,-0.61
2017-01-30T11:00:04.483Z,-0.69
2017-01-30T11:01:14.476Z,-0.62
2017-01-30T11:02:25.077Z,-0.67
2017-01-30T11:03:35.870Z,-0.69
2017-01-30T11:04:46.615Z,-0.64
2017-01-30T11:05:56.964Z,-0.61
2017-01-30T11:07:07.320Z,-0.66
2017-01-30T11:08:17.676Z,-0.61
2017-01-30T11:09:28.409Z,-0.73
2017-01-30T11:10:38.770Z,-0.66
2017-01-30T11:11:49.517Z,-0.58
2017-01-30T11:12:59.856Z,-0.67
2017-01-30T11:14:10.207Z,-0.7
2017-01-30T11:15:21.198Z,-0.64
2017-01-30T11:16:31.548Z,-0.64
2017-01-30T11:17:42.287Z,-0.52
2017-01-30T11:18:52.648Z,-0.46
2017-01-30T11:20:02.993Z,-0.58
2017-01-30T11:21:13.359Z,-0.64
2017-01-30T11:22:24.099Z,-0.67
2017-01-30T11:23:34.854Z,-0.61
2017-01-30T11:24:45.220Z,-0.67
2017-01-30T11:25:55.205Z,-0.8
2017-01-30T11:27:05.960Z,-0.8
2017-01-30T11:28:16.312Z,-0.87
2017-01-30T11:29:26.264Z,-0.87
2017-01-30T11:30:36.614Z,-0.93
2017-01-30T11:31:47.347Z,-0.91
2017-01-30T11:32:58.084Z,-0.85
2017-01-30T11:34:08.039Z,-0.92
2017-01-30T11:35:18.415Z,-0.84
2017-01-30T11:36:29.145Z,-0.84
2017-01-30T11:37:39.512Z,-0.91
2017-01-30T11:38:50.265Z,-0.79
2017-01-30T11:40:00.635Z,-0.89
2017-01-30T11:41:10.983Z,-0.87
2017-01-30T11:42:21.345Z,-0.92
2017-01-30T11:43:31.320Z,-0.92
2017-01-30T11:44:42.106Z,-0.77
2017-01-30T11:45:52.852Z,-0.77
2017-01-30T11:47:03.590Z,-0.85
2017-01-30T11:48:13.943Z,-0.91
2017-01-30T11:49:24.718Z,-0.92
2017-01-30T11:50:34.282Z,-0.87
2017-01-30T11:51:44.631Z,-0.92
2017-01-30T11:52:55.370Z,-0.96
2017-01-30T11:54:06.108Z,-0.96
2017-01-30T11:55:16.463Z,-0.92
2017-01-30T11:56:26.809Z,-0.93
2017-01-30T11:57:37.563Z,-0.92
2017-01-30T11:58:48.296Z,-0.96
2017-01-30T11:59:58.250Z,-0.99
2017-01-30T12:01:09.010Z,-1.09
2017-01-30T12:02:19.365Z,-1.09
2017-01-30T12:03:30.109Z,-1.14
2017-01-30T12:04:40.500Z,-1.09
2017-01-30T12:05:50.446Z,-1.07
2017-01-30T12:07:01.251Z,-1.07
2017-01-30T12:08:11.620Z,-1.09
2017-01-30T12:09:22.362Z,-1.07
2017-01-30T12:10:32.714Z,-1.07
2017-01-30T12:11:43.462Z,-1.07
2017-01-30T12:12:53.439Z,-1.13
2017-01-30T12:14:04.180Z,-1.1
2017-01-30T12:15:14.535Z,-1.11
2017-01-30T12:16:25.289Z,-1.11
2017-01-30T12:17:36.034Z,-1.09
2017-01-30T12:18:46.397Z,-1.09
2017-01-30T12:19:56.753Z,-1.1
2017-01-30T12:21:07.092Z,-1.1
2017-01-30T12:22:16.646Z,-1.13
2017-01-30T12:23:27.012Z,-1.24
2017-01-30T12:24:37.760Z,-1.25
2017-01-30T12:25:48.542Z,-1.25
2017-01-30T12:26:59.281Z,-1.27
2017-01-30T12:28:08.829Z,-1.28
2017-01-30T12:29:18.793Z,-1.25
2017-01-30T12:30:27.964Z,-1.3
2017-01-30T12:31:38.310Z,-1.27
2017-01-30T12:32:49.051Z,-1.3
2017-01-30T12:33:59.789Z,-1.31
2017-01-30T12:35:10.171Z,-1.24
2017-01-30T12:36:20.584Z,-1.28
2017-01-30T12:37:31.325Z,-1.21
2017-01-30T12:38:42.082Z,-1.27
2017-01-30T12:39:52.450Z,-1.16
2017-01-30T12:41:02.804Z,-1.24
2017-01-30T12:42:13.540Z,-1.27
2017-01-30T12:43:24.282Z,-1.21
2017-01-30T12:44:35.035Z,-1.25
2017-01-30T12:45:45.788Z,-1.28
2017-01-30T12:46:56.530Z,-1.32
2017-01-30T12:48:06.893Z,-1.3
2017-01-30T12:49:17.627Z,-1.35
2017-01-30T12:50:27.979Z,-1.24
2017-01-30T12:51:38.345Z,-1.21
2017-01-30T12:52:48.693Z,-1.21
2017-01-30T12:53:59.044Z,-1.1
2017-01-30T12:55:09.027Z,-1.14
2017-01-30T12:56:19.851Z,-1.16
2017-01-30T12:57:30.604Z,-1.11
2017-01-30T12:58:40.975Z,-1.16
2017-01-30T12:59:51.326Z,-1.11
2017-01-30T13:01:02.072Z,-1.14
2017-01-30T13:02:12.816Z,-1.28
2017-01-30T13:03:23.219Z,-1.24
2017-01-30T13:04:33.961Z,-1.22
2017-01-30T13:05:44.711Z,-1.22
2017-01-30T13:06:55.075Z,-1.3
2017-01-30T13:08:05.824Z,-1.3
2017-01-30T13:09:16.574Z,-1.32
2017-01-30T13:10:26.533Z,-1.32
2017-01-30T13:11:36.891Z,-1.37
2017-01-30T13:12:46.458Z,-1.4
2017-01-30T13:13:56.827Z,-1.42
2017-01-30T13:15:07.193Z,-1.42
2017-01-30T13:16:17.534Z,-1.3
2017-01-30T13:17:28.285Z,-1.3
2017-01-30T13:18:38.319Z,-1.3
2017-01-30T13:19:49.071Z,-1.43
2017-01-30T13:20:59.919Z,-1.43
2017-01-30T13:22:10.400Z,-1.48
2017-01-30T13:23:21.213Z,-1.46
2017-01-30T13:24:31.614Z,-1.48
2017-01-30T13:25:41.617Z,-1.48
2017-01-30T13:26:51.594Z,-1.58
2017-01-30T13:28:02.361Z,-1.49
2017-01-30T13:29:12.728Z,-1.6
2017-01-30T13:30:23.092Z,-1.53
2017-01-30T13:31:34.058Z,-1.52
2017-01-30T13:32:44.027Z,-1.52
2017-01-30T13:33:54.378Z,-1.56
2017-01-30T13:35:04.736Z,-1.61
2017-01-30T13:36:14.301Z,-1.64
2017-01-30T13:37:24.669Z,-1.61
2017-01-30T13:38:35.440Z,-1.61
2017-01-30T13:39:46.221Z,-1.58
2017-01-30T13:40:56.597Z,-1.6
2017-01-30T13:42:06.550Z,-1.53
2017-01-30T13:43:16.107Z,-1.68
2017-01-30T13:44:26.070Z,-1.66
2017-01-30T13:45:36.879Z,-1.6
2017-01-30T13:46:47.679Z,-1.67
2017-01-30T13:47:58.464Z,-1.7
2017-01-30T13:49:09.208Z,-1.7
2017-01-30T13:50:19.974Z,-1.66
2017-01-30T13:51:30.741Z,-1.68
2017-01-30T13:52:41.514Z,-1.61
2017-01-30T13:53:52.295Z,-1.73
2017-01-30T13:55:03.039Z,-1.64
2017-01-30T13:56:13.811Z,-1.63
2017-01-30T13:57:23.372Z,-1.53
2017-01-30T13:58:33.719Z,-1.55
2017-01-30T13:59:44.743Z,-1.6
2017-01-30T14:00:55.110Z,-1.58
2017-01-30T14:02:05.852Z,-1.56
2017-01-30T14:03:15.820Z,-1.68
2017-01-30T14:04:25.783Z,-1.61
2017-01-30T14:05:36.537Z,-1.73
2017-01-30T14:06:47.298Z,-1.63
2017-01-30T14:07:57.274Z,-1.71
2017-01-30T14:09:07.239Z,-1.66
2017-01-30T14:10:17.616Z,-1.73
2017-01-30T14:11:28.014Z,-1.7
2017-01-30T14:12:38.769Z,-1.74
2017-01-30T14:13:49.534Z,-1.76
2017-01-30T14:15:00.301Z,-1.64
2017-01-30T14:16:11.071Z,-1.7
2017-01-30T14:17:21.409Z,-1.79
2017-01-30T14:18:32.176Z,-1.81
2017-01-30T14:19:42.944Z,-1.78
2017-01-30T14:20:53.360Z,-1.85
2017-01-30T14:22:03.725Z,-1.74
2017-01-30T14:23:14.074Z,-1.86
2017-01-30T14:24:24.415Z,-1.81
2017-01-30T14:25:34.767Z,-1.88
2017-01-30T14:26:45.107Z,-1.81
2017-01-30T14:27:55.867Z,-1.82
2017-01-30T14:29:06.221Z,-1.79
2017-01-30T14:30:16.957Z,-1.82
2017-01-30T14:31:27.707Z,-1.86
2017-01-30T14:32:38.472Z,-1.81
2017-01-30T14:33:48.839Z,-1.85
2017-01-30T14:34:59.587Z,-1.86
2017-01-30T14:36:09.966Z,-1.96
2017-01-30T14:37:20.326Z,-1.97
2017-01-30T14:38:30.694Z,-1.99
2017-01-30T14:39:41.439Z,-2.06
2017-01-30T14:40:51.788Z,-2.05
2017-01-30T14:42:02.536Z,-2.12
2017-01-30T14:43:12.911Z,-2.14
2017-01-30T14:44:23.656Z,-2.09
2017-01-30T14:45:34.406Z,-2
2017-01-30T14:46:44.757Z,-2.07
2017-01-30T14:47:55.498Z,-2.1
2017-01-30T14:49:05.885Z,-2.14
2017-01-30T14:50:16.234Z,-2.06
2017-01-30T14:51:26.975Z,-2.06
2017-01-30T14:52:37.754Z,-2.17
2017-01-30T14:53:47.309Z,-2.2
2017-01-30T14:54:58.059Z,-2.15
2017-01-30T14:56:08.804Z,-2.17
2017-01-30T14:57:19.610Z,-2.24
2017-01-30T14:58:29.569Z,-2.2
2017-01-30T14:59:39.932Z,-2.21
2017-01-30T15:00:50.297Z,-2.23
2017-01-30T15:02:00.274Z,-2.28
2017-01-30T15:03:10.248Z,-2.28
2017-01-30T15:04:20.675Z,-2.34
2017-01-30T15:05:31.432Z,-2.4
2017-01-30T15:06:41.775Z,-2.4
2017-01-30T15:07:52.537Z,-2.36
2017-01-30T15:09:03.322Z,-2.42
2017-01-30T15:10:13.710Z,-2.49
2017-01-30T15:11:24.454Z,-2.47
2017-01-30T15:12:35.199Z,-2.5
2017-01-30T15:13:45.956Z,-2.53
2017-01-30T15:14:55.940Z,-2.49
2017-01-30T15:16:06.290Z,-2.58
2017-01-30T15:17:16.251Z,-2.49
2017-01-30T15:18:26.613Z,-2.54
2017-01-30T15:19:37.196Z,-2.57
2017-01-30T15:20:46.757Z,-2.5
2017-01-30T15:21:57.123Z,-2.49
2017-01-30T15:23:07.889Z,-2.54
2017-01-30T15:24:18.233Z,-2.64
2017-01-30T15:25:28.989Z,-2.6
2017-01-30T15:26:39.358Z,-2.62
2017-01-30T15:27:50.117Z,-2.6
2017-01-30T15:29:00.859Z,-2.49
2017-01-30T15:30:11.605Z,-2.54
2017-01-30T15:31:22.342Z,-2.62
2017-01-30T15:32:33.080Z,-2.65
2017-01-30T15:33:43.850Z,-2.57
2017-01-30T15:34:54.219Z,-2.67
2017-01-30T15:36:05.000Z,-2.68
2017-01-30T15:37:15.737Z,-2.68
2017-01-30T15:38:26.493Z,-2.65
2017-01-30T15:39:36.845Z,-2.76
2017-01-30T15:40:47.588Z,-2.7
2017-01-30T15:41:58.337Z,-2.73